Disclaimer

Please do not use the information listed here in-flight or in-navigation, as they are not provided to us by the airports but are provided by volunteers, so they might be outdated.

Search


Regions


Airport information page

Radio informations:
Tower (TWR) - 134.5 MHz

Airport informations:
Latitude: 50° 02' 11.75" N
Longitude: 082° 29' 39.07" E
Elevation: 939 feet - 286 meters
Operating hours: N/A
Operating agency: Civil government, landing fees and diplomatic clearance may be required
Timezone: UTC+6(+7DT)
Fuel: N/A

Runway information:
12/30 - 8234 x 138 feet< - >2510 x 42 meters
12L/30R - 6088 x 200 feet< - >1856 x 61 meters

Recent METARs:
UASK 190000Z 12002MPS 5000 -SHSN OVC030CB M07/M08 Q1029 R12/490346 NOSIG RMK QFE746/0995
UASK 190000Z 12002MPS 5000 -SHSN OVC030CB M07/M08 Q1029 R12/490346 NOSIG RMK QFE746/0995
UASK 190100Z 12003MPS 5000 -SHSN OVC033CB M07/M08 Q1030 R12/490346 NOSIG RMK QFE747/0996

Airport on the map: